sensor_id;sensor_type;location;lat;lon;timestamp;P1;durP1;ratioP1;P2;durP2;ratioP2
24261;SDS011;12385;51.412;5.540;2024-02-26T00:00:36;4.97;;;2.72;;
24261;SDS011;12385;51.412;5.540;2024-02-26T00:03:02;6.22;;;2.90;;
24261;SDS011;12385;51.412;5.540;2024-02-26T00:05:28;7.40;;;3.10;;
24261;SDS011;12385;51.412;5.540;2024-02-26T00:07:53;5.20;;;2.90;;
24261;SDS011;12385;51.412;5.540;2024-02-26T00:10:19;7.10;;;3.08;;
24261;SDS011;12385;51.412;5.540;2024-02-26T00:12:45;6.68;;;3.03;;
24261;SDS011;12385;51.412;5.540;2024-02-26T00:15:11;7.07;;;2.92;;
24261;SDS011;12385;51.412;5.540;2024-02-26T00:17:37;6.05;;;2.97;;
24261;SDS011;12385;51.412;5.540;2024-02-26T00:20:03;6.25;;;2.88;;
24261;SDS011;12385;51.412;5.540;2024-02-26T00:22:33;7.80;;;2.88;;
24261;SDS011;12385;51.412;5.540;2024-02-26T00:25:00;7.10;;;2.92;;
24261;SDS011;12385;51.412;5.540;2024-02-26T00:27:26;6.60;;;3.08;;
24261;SDS011;12385;51.412;5.540;2024-02-26T00:29:53;5.55;;;3.40;;
24261;SDS011;12385;51.412;5.540;2024-02-26T00:32:19;7.35;;;3.25;;
24261;SDS011;12385;51.412;5.540;2024-02-26T00:34:44;5.63;;;3.15;;
24261;SDS011;12385;51.412;5.540;2024-02-26T00:37:10;5.43;;;3.03;;
24261;SDS011;12385;51.412;5.540;2024-02-26T00:39:36;9.35;;;3.75;;
24261;SDS011;12385;51.412;5.540;2024-02-26T00:42:01;6.35;;;2.90;;
24261;SDS011;12385;51.412;5.540;2024-02-26T00:44:27;6.43;;;3.33;;
24261;SDS011;12385;51.412;5.540;2024-02-26T00:46:55;7.57;;;3.80;;
24261;SDS011;12385;51.412;5.540;2024-02-26T00:49:25;7.53;;;3.25;;
24261;SDS011;12385;51.412;5.540;2024-02-26T00:51:55;5.22;;;3.67;;
24261;SDS011;12385;51.412;5.540;2024-02-26T00:54:24;8.80;;;3.58;;
24261;SDS011;12385;51.412;5.540;2024-02-26T00:56:50;10.38;;;4.10;;
24261;SDS011;12385;51.412;5.540;2024-02-26T00:59:25;8.50;;;3.88;;
24261;SDS011;12385;51.412;5.540;2024-02-26T01:04:20;8.50;;;3.83;;
24261;SDS011;12385;51.412;5.540;2024-02-26T01:06:50;8.70;;;4.05;;
24261;SDS011;12385;51.412;5.540;2024-02-26T01:11:47;7.15;;;3.78;;
24261;SDS011;12385;51.412;5.540;2024-02-26T01:14:14;8.18;;;4.00;;
24261;SDS011;12385;51.412;5.540;2024-02-26T01:16:39;9.55;;;4.00;;
24261;SDS011;12385;51.412;5.540;2024-02-26T01:19:05;11.70;;;3.97;;
24261;SDS011;12385;51.412;5.540;2024-02-26T01:21:31;8.38;;;4.20;;
24261;SDS011;12385;51.412;5.540;2024-02-26T01:23:57;9.88;;;4.20;;
24261;SDS011;12385;51.412;5.540;2024-02-26T01:26:25;10.30;;;4.68;;
24261;SDS011;12385;51.412;5.540;2024-02-26T01:28:53;8.32;;;4.30;;
24261;SDS011;12385;51.412;5.540;2024-02-26T01:31:20;8.68;;;4.38;;
24261;SDS011;12385;51.412;5.540;2024-02-26T01:33:50;11.20;;;4.80;;
24261;SDS011;12385;51.412;5.540;2024-02-26T01:36:20;9.05;;;4.10;;
24261;SDS011;12385;51.412;5.540;2024-02-26T01:38:50;8.23;;;4.20;;
24261;SDS011;12385;51.412;5.540;2024-02-26T01:41:15;7.95;;;4.68;;
24261;SDS011;12385;51.412;5.540;2024-02-26T01:43:41;8.27;;;4.28;;
24261;SDS011;12385;51.412;5.540;2024-02-26T01:46:11;11.45;;;4.88;;
24261;SDS011;12385;51.412;5.540;2024-02-26T01:48:42;7.38;;;4.40;;
24261;SDS011;12385;51.412;5.540;2024-02-26T01:51:10;6.57;;;4.05;;
24261;SDS011;12385;51.412;5.540;2024-02-26T01:53:37;11.73;;;4.55;;
24261;SDS011;12385;51.412;5.540;2024-02-26T01:56:03;11.50;;;4.45;;
24261;SDS011;12385;51.412;5.540;2024-02-26T01:58:29;9.07;;;4.50;;
24261;SDS011;12385;51.412;5.540;2024-02-26T02:00:56;7.15;;;4.07;;
24261;SDS011;12385;51.412;5.540;2024-02-26T02:03:25;10.10;;;4.55;;
24261;SDS011;12385;51.412;5.540;2024-02-26T02:05:55;10.82;;;4.30;;
24261;SDS011;12385;51.412;5.540;2024-02-26T02:08:25;8.70;;;4.38;;
24261;SDS011;12385;51.412;5.540;2024-02-26T02:10:54;8.85;;;4.85;;
24261;SDS011;12385;51.412;5.540;2024-02-26T02:13:25;9.27;;;4.35;;
24261;SDS011;12385;51.412;5.540;2024-02-26T02:15:55;10.23;;;4.82;;
24261;SDS011;12385;51.412;5.540;2024-02-26T02:18:25;9.32;;;4.57;;
24261;SDS011;12385;51.412;5.540;2024-02-26T02:23:25;7.20;;;4.82;;
24261;SDS011;12385;51.412;5.540;2024-02-26T02:25:50;9.45;;;5.28;;
24261;SDS011;12385;51.412;5.540;2024-02-26T02:28:26;6.95;;;5.20;;
24261;SDS011;12385;51.412;5.540;2024-02-26T02:30:56;10.18;;;5.00;;
24261;SDS011;12385;51.412;5.540;2024-02-26T02:33:25;9.87;;;5.90;;
24261;SDS011;12385;51.412;5.540;2024-02-26T02:35:55;9.60;;;5.53;;
24261;SDS011;12385;51.412;5.540;2024-02-26T02:38:20;8.98;;;6.00;;
24261;SDS011;12385;51.412;5.540;2024-02-26T02:40:55;10.13;;;5.45;;
24261;SDS011;12385;51.412;5.540;2024-02-26T02:43:25;9.40;;;5.97;;
24261;SDS011;12385;51.412;5.540;2024-02-26T02:45:53;8.50;;;6.30;;
24261;SDS011;12385;51.412;5.540;2024-02-26T02:48:23;10.23;;;5.97;;
24261;SDS011;12385;51.412;5.540;2024-02-26T02:50:55;8.05;;;5.70;;
24261;SDS011;12385;51.412;5.540;2024-02-26T02:53:24;11.60;;;6.25;;
24261;SDS011;12385;51.412;5.540;2024-02-26T02:55:50;8.90;;;5.93;;
24261;SDS011;12385;51.412;5.540;2024-02-26T02:58:20;9.32;;;5.95;;
24261;SDS011;12385;51.412;5.540;2024-02-26T03:00:54;10.90;;;5.70;;
24261;SDS011;12385;51.412;5.540;2024-02-26T03:03:23;13.93;;;6.70;;
24261;SDS011;12385;51.412;5.540;2024-02-26T03:05:55;9.25;;;5.80;;
24261;SDS011;12385;51.412;5.540;2024-02-26T03:08:20;9.20;;;6.07;;
24261;SDS011;12385;51.412;5.540;2024-02-26T03:10:55;11.32;;;6.20;;
24261;SDS011;12385;51.412;5.540;2024-02-26T03:13:25;9.55;;;5.82;;
24261;SDS011;12385;51.412;5.540;2024-02-26T03:15:56;8.68;;;5.35;;
24261;SDS011;12385;51.412;5.540;2024-02-26T03:18:25;9.88;;;5.90;;
24261;SDS011;12385;51.412;5.540;2024-02-26T03:20:55;10.23;;;5.80;;
24261;SDS011;12385;51.412;5.540;2024-02-26T03:23:24;10.27;;;5.57;;
24261;SDS011;12385;51.412;5.540;2024-02-26T03:28:25;9.23;;;5.18;;
24261;SDS011;12385;51.412;5.540;2024-02-26T03:30:55;8.82;;;5.70;;
24261;SDS011;12385;51.412;5.540;2024-02-26T03:35:55;9.10;;;5.10;;
24261;SDS011;12385;51.412;5.540;2024-02-26T03:38:25;7.13;;;4.95;;
24261;SDS011;12385;51.412;5.540;2024-02-26T03:40:54;10.93;;;5.03;;
24261;SDS011;12385;51.412;5.540;2024-02-26T03:43:25;10.10;;;5.30;;
24261;SDS011;12385;51.412;5.540;2024-02-26T03:45:55;8.48;;;4.55;;
24261;SDS011;12385;51.412;5.540;2024-02-26T03:48:24;6.82;;;4.07;;
24261;SDS011;12385;51.412;5.540;2024-02-26T03:50:55;8.00;;;4.00;;
24261;SDS011;12385;51.412;5.540;2024-02-26T03:53:27;9.73;;;4.80;;
24261;SDS011;12385;51.412;5.540;2024-02-26T03:55:55;8.48;;;4.65;;
24261;SDS011;12385;51.412;5.540;2024-02-26T03:58:24;6.70;;;4.57;;
24261;SDS011;12385;51.412;5.540;2024-02-26T04:00:54;4.93;;;4.40;;
24261;SDS011;12385;51.412;5.540;2024-02-26T04:03:26;5.38;;;4.50;;
24261;SDS011;12385;51.412;5.540;2024-02-26T04:05:55;8.00;;;4.60;;
24261;SDS011;12385;51.412;5.540;2024-02-26T04:08:25;8.13;;;4.40;;
24261;SDS011;12385;51.412;5.540;2024-02-26T04:10:55;4.90;;;4.40;;
24261;SDS011;12385;51.412;5.540;2024-02-26T04:15:55;5.88;;;4.28;;
24261;SDS011;12385;51.412;5.540;2024-02-26T04:18:25;6.80;;;4.47;;
24261;SDS011;12385;51.412;5.540;2024-02-26T04:20:55;7.50;;;4.30;;
24261;SDS011;12385;51.412;5.540;2024-02-26T04:23:25;6.88;;;4.80;;
24261;SDS011;12385;51.412;5.540;2024-02-26T04:25:55;7.57;;;5.00;;
24261;SDS011;12385;51.412;5.540;2024-02-26T04:28:24;8.45;;;4.50;;
24261;SDS011;12385;51.412;5.540;2024-02-26T04:30:55;6.82;;;5.10;;
24261;SDS011;12385;51.412;5.540;2024-02-26T04:33:24;5.75;;;4.60;;
24261;SDS011;12385;51.412;5.540;2024-02-26T04:38:25;5.70;;;5.05;;
24261;SDS011;12385;51.412;5.540;2024-02-26T04:40:55;9.00;;;5.40;;
24261;SDS011;12385;51.412;5.540;2024-02-26T04:43:24;8.93;;;5.43;;
24261;SDS011;12385;51.412;5.540;2024-02-26T04:45:50;7.72;;;5.70;;
24261;SDS011;12385;51.412;5.540;2024-02-26T04:48:25;9.75;;;5.40;;
24261;SDS011;12385;51.412;5.540;2024-02-26T04:50:55;8.50;;;5.80;;
24261;SDS011;12385;51.412;5.540;2024-02-26T04:53:20;8.05;;;6.00;;
24261;SDS011;12385;51.412;5.540;2024-02-26T04:55:55;9.05;;;6.00;;
24261;SDS011;12385;51.412;5.540;2024-02-26T04:58:24;7.60;;;6.40;;
24261;SDS011;12385;51.412;5.540;2024-02-26T05:00:54;8.15;;;5.50;;
24261;SDS011;12385;51.412;5.540;2024-02-26T05:03:25;9.68;;;6.20;;
24261;SDS011;12385;51.412;5.540;2024-02-26T05:08:25;8.68;;;6.03;;
24261;SDS011;12385;51.412;5.540;2024-02-26T05:10:55;7.90;;;6.60;;
24261;SDS011;12385;51.412;5.540;2024-02-26T05:15:50;9.95;;;7.20;;
24261;SDS011;12385;51.412;5.540;2024-02-26T05:18:19;9.07;;;6.47;;
24261;SDS011;12385;51.412;5.540;2024-02-26T05:20:45;10.95;;;7.50;;
24261;SDS011;12385;51.412;5.540;2024-02-26T05:23:11;9.00;;;7.25;;
24261;SDS011;12385;51.412;5.540;2024-02-26T05:25:37;8.05;;;6.70;;
24261;SDS011;12385;51.412;5.540;2024-02-26T05:28:03;9.18;;;6.90;;
24261;SDS011;12385;51.412;5.540;2024-02-26T05:30:29;8.88;;;6.75;;
24261;SDS011;12385;51.412;5.540;2024-02-26T05:32:55;8.00;;;6.55;;
24261;SDS011;12385;51.412;5.540;2024-02-26T05:35:25;10.68;;;7.05;;
24261;SDS011;12385;51.412;5.540;2024-02-26T05:40:20;10.90;;;6.55;;
24261;SDS011;12385;51.412;5.540;2024-02-26T05:42:50;12.02;;;6.53;;
24261;SDS011;12385;51.412;5.540;2024-02-26T05:45:20;8.82;;;6.45;;
24261;SDS011;12385;51.412;5.540;2024-02-26T05:47:49;8.88;;;6.10;;
24261;SDS011;12385;51.412;5.540;2024-02-26T05:50:15;9.98;;;6.22;;
24261;SDS011;12385;51.412;5.540;2024-02-26T05:52:41;7.22;;;6.30;;
24261;SDS011;12385;51.412;5.540;2024-02-26T05:55:07;8.15;;;6.20;;
24261;SDS011;12385;51.412;5.540;2024-02-26T05:57:34;8.68;;;6.30;;
24261;SDS011;12385;51.412;5.540;2024-02-26T05:59:59;8.15;;;5.90;;
24261;SDS011;12385;51.412;5.540;2024-02-26T06:02:32;7.93;;;6.03;;
24261;SDS011;12385;51.412;5.540;2024-02-26T06:04:58;7.75;;;6.53;;
24261;SDS011;12385;51.412;5.540;2024-02-26T06:07:25;7.88;;;6.28;;
24261;SDS011;12385;51.412;5.540;2024-02-26T06:09:55;6.88;;;5.97;;
24261;SDS011;12385;51.412;5.540;2024-02-26T06:12:24;11.35;;;7.22;;
24261;SDS011;12385;51.412;5.540;2024-02-26T06:14:55;8.30;;;7.03;;
24261;SDS011;12385;51.412;5.540;2024-02-26T06:17:23;9.98;;;6.78;;
24261;SDS011;12385;51.412;5.540;2024-02-26T06:19:55;8.73;;;6.25;;
24261;SDS011;12385;51.412;5.540;2024-02-26T06:22:25;7.38;;;6.07;;
24261;SDS011;12385;51.412;5.540;2024-02-26T06:24:56;10.45;;;6.55;;
24261;SDS011;12385;51.412;5.540;2024-02-26T06:27:25;11.88;;;6.55;;
24261;SDS011;12385;51.412;5.540;2024-02-26T06:29:56;8.40;;;6.47;;
24261;SDS011;12385;51.412;5.540;2024-02-26T06:32:25;8.75;;;6.43;;
24261;SDS011;12385;51.412;5.540;2024-02-26T06:34:55;7.05;;;6.22;;
24261;SDS011;12385;51.412;5.540;2024-02-26T06:37:24;8.30;;;6.10;;
24261;SDS011;12385;51.412;5.540;2024-02-26T06:39:50;7.90;;;6.03;;
24261;SDS011;12385;51.412;5.540;2024-02-26T06:42:20;8.93;;;5.95;;
24261;SDS011;12385;51.412;5.540;2024-02-26T06:44:50;7.25;;;5.97;;
24261;SDS011;12385;51.412;5.540;2024-02-26T06:47:15;6.55;;;5.38;;
24261;SDS011;12385;51.412;5.540;2024-02-26T06:49:44;6.53;;;5.28;;
24261;SDS011;12385;51.412;5.540;2024-02-26T06:52:10;7.50;;;5.72;;
24261;SDS011;12385;51.412;5.540;2024-02-26T06:54:35;7.20;;;6.03;;
24261;SDS011;12385;51.412;5.540;2024-02-26T06:57:01;6.85;;;5.70;;
24261;SDS011;12385;51.412;5.540;2024-02-26T06:59:28;6.93;;;5.45;;
24261;SDS011;12385;51.412;5.540;2024-02-26T07:01:55;7.25;;;5.47;;
24261;SDS011;12385;51.412;5.540;2024-02-26T07:04:21;7.68;;;6.05;;
24261;SDS011;12385;51.412;5.540;2024-02-26T07:06:50;8.15;;;6.68;;
24261;SDS011;12385;51.412;5.540;2024-02-26T07:09:19;8.23;;;6.90;;
24261;SDS011;12385;51.412;5.540;2024-02-26T07:11:45;10.73;;;7.07;;
24261;SDS011;12385;51.412;5.540;2024-02-26T07:14:12;9.48;;;6.60;;
24261;SDS011;12385;51.412;5.540;2024-02-26T07:16:37;8.70;;;6.90;;
24261;SDS011;12385;51.412;5.540;2024-02-26T07:19:03;8.43;;;7.43;;
24261;SDS011;12385;51.412;5.540;2024-02-26T07:21:29;9.25;;;7.70;;
24261;SDS011;12385;51.412;5.540;2024-02-26T07:23:55;8.52;;;7.45;;
24261;SDS011;12385;51.412;5.540;2024-02-26T07:26:24;9.77;;;7.93;;
24261;SDS011;12385;51.412;5.540;2024-02-26T07:28:55;8.75;;;7.85;;
24261;SDS011;12385;51.412;5.540;2024-02-26T07:31:24;10.02;;;8.18;;
24261;SDS011;12385;51.412;5.540;2024-02-26T07:33:50;11.10;;;8.48;;
24261;SDS011;12385;51.412;5.540;2024-02-26T07:36:20;12.07;;;8.65;;
24261;SDS011;12385;51.412;5.540;2024-02-26T07:38:45;11.27;;;9.98;;
24261;SDS011;12385;51.412;5.540;2024-02-26T07:41:11;13.00;;;10.10;;
24261;SDS011;12385;51.412;5.540;2024-02-26T07:43:37;14.07;;;10.20;;
24261;SDS011;12385;51.412;5.540;2024-02-26T07:46:04;17.38;;;10.63;;
24261;SDS011;12385;51.412;5.540;2024-02-26T07:48:29;13.13;;;10.98;;
24261;SDS011;12385;51.412;5.540;2024-02-26T07:50:55;12.13;;;10.77;;
24261;SDS011;12385;51.412;5.540;2024-02-26T07:53:25;13.73;;;10.75;;
24261;SDS011;12385;51.412;5.540;2024-02-26T07:55:54;12.73;;;10.63;;
24261;SDS011;12385;51.412;5.540;2024-02-26T07:58:25;16.00;;;11.45;;
24261;SDS011;12385;51.412;5.540;2024-02-26T08:00:50;14.38;;;11.68;;
24261;SDS011;12385;51.412;5.540;2024-02-26T08:03:22;12.25;;;10.95;;
24261;SDS011;12385;51.412;5.540;2024-02-26T08:05:51;14.23;;;10.45;;
24261;SDS011;12385;51.412;5.540;2024-02-26T08:08:20;18.02;;;12.27;;
24261;SDS011;12385;51.412;5.540;2024-02-26T08:10:50;14.32;;;10.07;;
24261;SDS011;12385;51.412;5.540;2024-02-26T08:13:20;12.65;;;10.85;;
24261;SDS011;12385;51.412;5.540;2024-02-26T08:15:55;12.60;;;9.60;;
24261;SDS011;12385;51.412;5.540;2024-02-26T08:18:25;12.45;;;10.07;;
24261;SDS011;12385;51.412;5.540;2024-02-26T08:20:50;13.18;;;10.43;;
24261;SDS011;12385;51.412;5.540;2024-02-26T08:23:20;12.48;;;9.63;;
24261;SDS011;12385;51.412;5.540;2024-02-26T08:25:55;9.60;;;8.60;;
24261;SDS011;12385;51.412;5.540;2024-02-26T08:28:25;11.73;;;8.68;;
24261;SDS011;12385;51.412;5.540;2024-02-26T08:33:20;10.00;;;8.55;;
24261;SDS011;12385;51.412;5.540;2024-02-26T08:35:46;11.52;;;8.43;;
24261;SDS011;12385;51.412;5.540;2024-02-26T08:38:12;11.45;;;7.55;;
24261;SDS011;12385;51.412;5.540;2024-02-26T08:40:38;11.15;;;7.53;;
24261;SDS011;12385;51.412;5.540;2024-02-26T08:43:03;10.40;;;7.70;;
24261;SDS011;12385;51.412;5.540;2024-02-26T08:45:29;9.15;;;7.75;;
24261;SDS011;12385;51.412;5.540;2024-02-26T08:47:55;11.52;;;8.13;;
24261;SDS011;12385;51.412;5.540;2024-02-26T08:50:24;9.90;;;8.00;;
24261;SDS011;12385;51.412;5.540;2024-02-26T08:52:55;9.15;;;7.45;;
24261;SDS011;12385;51.412;5.540;2024-02-26T08:55:23;11.13;;;8.10;;
24261;SDS011;12385;51.412;5.540;2024-02-26T08:57:55;8.77;;;7.72;;
24261;SDS011;12385;51.412;5.540;2024-02-26T09:00:22;9.90;;;8.35;;
24261;SDS011;12385;51.412;5.540;2024-02-26T09:02:55;11.02;;;8.18;;
24261;SDS011;12385;51.412;5.540;2024-02-26T09:05:25;9.25;;;8.02;;
24261;SDS011;12385;51.412;5.540;2024-02-26T09:07:55;9.52;;;8.52;;
24261;SDS011;12385;51.412;5.540;2024-02-26T09:12:55;10.57;;;9.10;;
24261;SDS011;12385;51.412;5.540;2024-02-26T09:15:24;13.27;;;8.90;;
24261;SDS011;12385;51.412;5.540;2024-02-26T09:17:55;11.00;;;8.93;;
24261;SDS011;12385;51.412;5.540;2024-02-26T09:20:24;11.82;;;8.95;;
24261;SDS011;12385;51.412;5.540;2024-02-26T09:22:54;10.25;;;8.73;;
24261;SDS011;12385;51.412;5.540;2024-02-26T09:27:55;10.52;;;9.00;;
24261;SDS011;12385;51.412;5.540;2024-02-26T09:30:25;12.55;;;10.02;;
24261;SDS011;12385;51.412;5.540;2024-02-26T09:32:55;14.30;;;10.45;;
24261;SDS011;12385;51.412;5.540;2024-02-26T09:35:26;11.23;;;9.90;;
24261;SDS011;12385;51.412;5.540;2024-02-26T09:37:54;12.63;;;9.90;;
24261;SDS011;12385;51.412;5.540;2024-02-26T09:40:20;11.75;;;10.05;;
24261;SDS011;12385;51.412;5.540;2024-02-26T09:42:59;12.40;;;10.32;;
24261;SDS011;12385;51.412;5.540;2024-02-26T09:45:26;12.73;;;10.35;;
24261;SDS011;12385;51.412;5.540;2024-02-26T09:47:55;10.95;;;9.75;;
24261;SDS011;12385;51.412;5.540;2024-02-26T09:50:24;13.63;;;11.05;;
24261;SDS011;12385;51.412;5.540;2024-02-26T09:52:50;13.55;;;10.75;;
24261;SDS011;12385;51.412;5.540;2024-02-26T09:55:24;11.18;;;9.98;;
24261;SDS011;12385;51.412;5.540;2024-02-26T09:57:53;11.40;;;9.95;;
24261;SDS011;12385;51.412;5.540;2024-02-26T10:00:24;12.68;;;10.05;;
24261;SDS011;12385;51.412;5.540;2024-02-26T10:02:56;11.45;;;9.48;;
24261;SDS011;12385;51.412;5.540;2024-02-26T10:05:25;12.10;;;10.73;;
24261;SDS011;12385;51.412;5.540;2024-02-26T10:07:55;12.40;;;11.10;;
24261;SDS011;12385;51.412;5.540;2024-02-26T10:10:25;13.95;;;12.40;;
24261;SDS011;12385;51.412;5.540;2024-02-26T10:12:55;14.00;;;11.90;;
24261;SDS011;12385;51.412;5.540;2024-02-26T10:15:25;15.18;;;11.25;;
24261;SDS011;12385;51.412;5.540;2024-02-26T10:17:54;13.52;;;11.93;;
24261;SDS011;12385;51.412;5.540;2024-02-26T10:22:54;16.38;;;12.23;;
24261;SDS011;12385;51.412;5.540;2024-02-26T10:25:20;17.08;;;13.00;;
24261;SDS011;12385;51.412;5.540;2024-02-26T10:27:50;15.70;;;11.88;;
24261;SDS011;12385;51.412;5.540;2024-02-26T10:30:25;14.30;;;11.60;;
24261;SDS011;12385;51.412;5.540;2024-02-26T10:32:55;12.77;;;10.15;;
24261;SDS011;12385;51.412;5.540;2024-02-26T10:35:26;14.40;;;11.00;;
24261;SDS011;12385;51.412;5.540;2024-02-26T10:37:55;12.25;;;10.30;;
24261;SDS011;12385;51.412;5.540;2024-02-26T10:40:25;14.57;;;10.88;;
24261;SDS011;12385;51.412;5.540;2024-02-26T10:42:56;15.60;;;11.20;;
24261;SDS011;12385;51.412;5.540;2024-02-26T10:45:25;15.00;;;12.23;;
24261;SDS011;12385;51.412;5.540;2024-02-26T10:47:56;16.85;;;10.70;;
24261;SDS011;12385;51.412;5.540;2024-02-26T10:50:25;17.33;;;11.18;;
24261;SDS011;12385;51.412;5.540;2024-02-26T10:52:56;15.27;;;11.57;;
24261;SDS011;12385;51.412;5.540;2024-02-26T10:55:25;15.70;;;11.85;;
24261;SDS011;12385;51.412;5.540;2024-02-26T10:57:56;16.27;;;11.37;;
24261;SDS011;12385;51.412;5.540;2024-02-26T11:00:26;14.95;;;11.35;;
24261;SDS011;12385;51.412;5.540;2024-02-26T11:02:58;16.73;;;13.05;;
24261;SDS011;12385;51.412;5.540;2024-02-26T11:05:28;16.10;;;11.38;;
24261;SDS011;12385;51.412;5.540;2024-02-26T11:07:58;17.88;;;11.93;;
24261;SDS011;12385;51.412;5.540;2024-02-26T11:10:26;19.25;;;12.68;;
24261;SDS011;12385;51.412;5.540;2024-02-26T11:12:59;17.73;;;13.00;;
24261;SDS011;12385;51.412;5.540;2024-02-26T11:15:28;18.55;;;14.35;;
24261;SDS011;12385;51.412;5.540;2024-02-26T11:17:58;17.58;;;12.98;;
24261;SDS011;12385;51.412;5.540;2024-02-26T11:20:26;19.88;;;14.98;;
24261;SDS011;12385;51.412;5.540;2024-02-26T11:22:58;19.70;;;14.65;;
24261;SDS011;12385;51.412;5.540;2024-02-26T11:25:26;17.90;;;13.93;;
24261;SDS011;12385;51.412;5.540;2024-02-26T11:28:01;22.35;;;14.90;;
24261;SDS011;12385;51.412;5.540;2024-02-26T11:30:32;23.33;;;14.55;;
24261;SDS011;12385;51.412;5.540;2024-02-26T11:33:00;18.85;;;13.93;;
24261;SDS011;12385;51.412;5.540;2024-02-26T11:35:27;18.40;;;14.35;;
24261;SDS011;12385;51.412;5.540;2024-02-26T11:37:57;20.92;;;13.70;;
24261;SDS011;12385;51.412;5.540;2024-02-26T11:40:26;16.27;;;13.40;;
24261;SDS011;12385;51.412;5.540;2024-02-26T11:42:57;16.17;;;12.95;;
24261;SDS011;12385;51.412;5.540;2024-02-26T11:45:47;16.98;;;12.85;;
24261;SDS011;12385;51.412;5.540;2024-02-26T11:48:16;16.08;;;13.32;;
24261;SDS011;12385;51.412;5.540;2024-02-26T11:50:51;19.15;;;14.27;;
24261;SDS011;12385;51.412;5.540;2024-02-26T11:53:27;15.85;;;12.73;;
24261;SDS011;12385;51.412;5.540;2024-02-26T11:58:44;17.75;;;14.68;;
24261;SDS011;12385;51.412;5.540;2024-02-26T12:06:58;26.95;;;19.17;;
24261;SDS011;12385;51.412;5.540;2024-02-26T12:09:33;29.83;;;20.13;;
24261;SDS011;12385;51.412;5.540;2024-02-26T12:12:03;24.30;;;18.20;;
24261;SDS011;12385;51.412;5.540;2024-02-26T12:14:32;27.90;;;20.08;;
24261;SDS011;12385;51.412;5.540;2024-02-26T12:17:00;26.38;;;19.38;;
24261;SDS011;12385;51.412;5.540;2024-02-26T12:19:26;30.35;;;21.40;;
24261;SDS011;12385;51.412;5.540;2024-02-26T12:21:57;30.83;;;21.55;;
24261;SDS011;12385;51.412;5.540;2024-02-26T12:24:25;29.70;;;21.90;;
24261;SDS011;12385;51.412;5.540;2024-02-26T12:26:57;31.45;;;21.33;;
24261;SDS011;12385;51.412;5.540;2024-02-26T12:29:25;34.53;;;22.60;;
24261;SDS011;12385;51.412;5.540;2024-02-26T12:31:56;28.83;;;20.02;;
24261;SDS011;12385;51.412;5.540;2024-02-26T12:34:25;30.88;;;20.58;;
24261;SDS011;12385;51.412;5.540;2024-02-26T12:36:56;32.03;;;21.23;;
24261;SDS011;12385;51.412;5.540;2024-02-26T12:39:25;29.33;;;19.75;;
24261;SDS011;12385;51.412;5.540;2024-02-26T12:41:58;30.92;;;21.23;;
24261;SDS011;12385;51.412;5.540;2024-02-26T12:44:26;33.70;;;21.23;;
24261;SDS011;12385;51.412;5.540;2024-02-26T12:47:02;39.92;;;22.83;;
24261;SDS011;12385;51.412;5.540;2024-02-26T12:49:29;39.92;;;23.45;;
24261;SDS011;12385;51.412;5.540;2024-02-26T12:51:56;38.65;;;23.90;;
24261;SDS011;12385;51.412;5.540;2024-02-26T12:54:27;43.95;;;24.27;;
24261;SDS011;12385;51.412;5.540;2024-02-26T12:56:56;44.20;;;26.13;;
24261;SDS011;12385;51.412;5.540;2024-02-26T12:59:25;41.00;;;24.17;;
24261;SDS011;12385;51.412;5.540;2024-02-26T13:01:56;45.83;;;26.52;;
24261;SDS011;12385;51.412;5.540;2024-02-26T13:04:26;47.63;;;27.35;;
24261;SDS011;12385;51.412;5.540;2024-02-26T13:06:56;53.08;;;27.90;;
24261;SDS011;12385;51.412;5.540;2024-02-26T13:09:32;50.30;;;28.73;;
24261;SDS011;12385;51.412;5.540;2024-02-26T13:12:00;52.47;;;29.10;;
24261;SDS011;12385;51.412;5.540;2024-02-26T13:14:28;49.47;;;27.63;;
24261;SDS011;12385;51.412;5.540;2024-02-26T13:16:57;50.75;;;28.00;;
24261;SDS011;12385;51.412;5.540;2024-02-26T13:19:26;46.75;;;27.88;;
24261;SDS011;12385;51.412;5.540;2024-02-26T13:22:02;59.05;;;29.02;;
24261;SDS011;12385;51.412;5.540;2024-02-26T13:24:34;58.65;;;30.45;;
24261;SDS011;12385;51.412;5.540;2024-02-26T13:27:01;51.33;;;28.88;;
24261;SDS011;12385;51.412;5.540;2024-02-26T13:29:30;56.88;;;30.23;;
24261;SDS011;12385;51.412;5.540;2024-02-26T13:31:59;58.75;;;30.33;;
24261;SDS011;12385;51.412;5.540;2024-02-26T13:34:28;55.35;;;30.15;;
24261;SDS011;12385;51.412;5.540;2024-02-26T13:36:58;49.60;;;27.98;;
24261;SDS011;12385;51.412;5.540;2024-02-26T13:39:26;50.47;;;28.83;;
24261;SDS011;12385;51.412;5.540;2024-02-26T13:41:56;48.55;;;26.25;;
24261;SDS011;12385;51.412;5.540;2024-02-26T13:44:26;51.75;;;27.17;;
24261;SDS011;12385;51.412;5.540;2024-02-26T13:46:57;48.58;;;27.48;;
24261;SDS011;12385;51.412;5.540;2024-02-26T13:49:27;41.17;;;23.15;;
24261;SDS011;12385;51.412;5.540;2024-02-26T13:51:57;43.47;;;25.83;;
24261;SDS011;12385;51.412;5.540;2024-02-26T13:54:25;37.83;;;23.83;;
24261;SDS011;12385;51.412;5.540;2024-02-26T13:56:51;39.80;;;24.45;;
24261;SDS011;12385;51.412;5.540;2024-02-26T13:59:26;40.20;;;23.75;;
24261;SDS011;12385;51.412;5.540;2024-02-26T14:04:27;40.72;;;23.60;;
24261;SDS011;12385;51.412;5.540;2024-02-26T14:09:25;36.67;;;22.42;;
24261;SDS011;12385;51.412;5.540;2024-02-26T14:11:58;44.65;;;23.70;;
24261;SDS011;12385;51.412;5.540;2024-02-26T14:14:28;39.78;;;22.38;;
24261;SDS011;12385;51.412;5.540;2024-02-26T14:16:57;40.77;;;22.57;;
24261;SDS011;12385;51.412;5.540;2024-02-26T14:19:26;32.72;;;20.65;;
24261;SDS011;12385;51.412;5.540;2024-02-26T14:21:57;32.60;;;19.58;;
24261;SDS011;12385;51.412;5.540;2024-02-26T14:24:24;35.50;;;20.95;;
24261;SDS011;12385;51.412;5.540;2024-02-26T14:26:50;34.03;;;18.90;;
24261;SDS011;12385;51.412;5.540;2024-02-26T14:29:16;32.08;;;19.30;;
24261;SDS011;12385;51.412;5.540;2024-02-26T14:31:42;32.85;;;20.10;;
24261;SDS011;12385;51.412;5.540;2024-02-26T14:34:07;29.50;;;18.77;;
24261;SDS011;12385;51.412;5.540;2024-02-26T14:36:34;32.35;;;19.08;;
24261;SDS011;12385;51.412;5.540;2024-02-26T14:39:00;32.50;;;19.38;;
24261;SDS011;12385;51.412;5.540;2024-02-26T14:41:29;30.50;;;18.20;;
24261;SDS011;12385;51.412;5.540;2024-02-26T14:43:55;32.63;;;18.98;;
24261;SDS011;12385;51.412;5.540;2024-02-26T14:46:25;31.25;;;18.63;;
24261;SDS011;12385;51.412;5.540;2024-02-26T14:48:55;25.33;;;16.50;;
24261;SDS011;12385;51.412;5.540;2024-02-26T14:51:25;27.65;;;17.20;;
24261;SDS011;12385;51.412;5.540;2024-02-26T14:53:55;27.55;;;17.58;;
24261;SDS011;12385;51.412;5.540;2024-02-26T14:56:25;31.80;;;17.80;;
24261;SDS011;12385;51.412;5.540;2024-02-26T14:58:54;26.92;;;16.52;;
24261;SDS011;12385;51.412;5.540;2024-02-26T15:01:24;25.35;;;16.00;;
24261;SDS011;12385;51.412;5.540;2024-02-26T15:03:50;24.67;;;14.95;;
24261;SDS011;12385;51.412;5.540;2024-02-26T15:06:25;26.23;;;15.65;;
24261;SDS011;12385;51.412;5.540;2024-02-26T15:08:55;23.73;;;15.95;;
24261;SDS011;12385;51.412;5.540;2024-02-26T15:11:25;24.65;;;15.35;;
24261;SDS011;12385;51.412;5.540;2024-02-26T15:16:20;21.05;;;13.73;;
24261;SDS011;12385;51.412;5.540;2024-02-26T15:18:55;23.45;;;15.40;;
24261;SDS011;12385;51.412;5.540;2024-02-26T15:21:24;23.63;;;15.50;;
24261;SDS011;12385;51.412;5.540;2024-02-26T15:23:51;25.67;;;16.77;;
24261;SDS011;12385;51.412;5.540;2024-02-26T15:26:20;22.48;;;15.45;;
24261;SDS011;12385;51.412;5.540;2024-02-26T15:28:55;23.52;;;15.63;;
24261;SDS011;12385;51.412;5.540;2024-02-26T15:33:51;23.58;;;15.68;;
24261;SDS011;12385;51.412;5.540;2024-02-26T15:36:26;24.88;;;16.35;;